createdAt,value
2022-12-11T00:00:08.195Z,7.90
2022-12-11T00:02:35.714Z,8.07
2022-12-11T00:05:02.344Z,8.17
2022-12-11T00:07:28.995Z,8.35
2022-12-11T00:09:55.576Z,8.38
2022-12-11T00:12:22.592Z,8.45
2022-12-11T00:14:49.328Z,8.54
2022-12-11T00:17:15.938Z,8.55
2022-12-11T00:19:42.656Z,8.54
2022-12-11T00:22:09.214Z,8.57
2022-12-11T00:24:35.779Z,8.52
2022-12-11T00:27:03.516Z,8.56
2022-12-11T00:29:30.194Z,8.57
2022-12-11T00:31:56.819Z,8.54
2022-12-11T00:34:23.502Z,8.49
2022-12-11T00:36:50.100Z,8.50
2022-12-11T00:39:16.826Z,8.41
2022-12-11T00:41:43.601Z,8.52
2022-12-11T00:44:10.404Z,8.62
2022-12-11T00:46:37.547Z,8.60
2022-12-11T00:49:04.432Z,8.60
2022-12-11T00:51:31.020Z,8.68
2022-12-11T00:53:57.747Z,8.71
2022-12-11T00:56:25.389Z,8.93
2022-12-11T00:58:52.082Z,9.01
2022-12-11T01:01:21.983Z,9.15
2022-12-11T01:03:49.294Z,9.11
2022-12-11T01:06:18.221Z,9.01
2022-12-11T01:08:45.445Z,9.06
2022-12-11T01:11:15.060Z,9.05
2022-12-11T01:13:42.473Z,9.17
2022-12-11T01:16:16.156Z,9.27
2022-12-11T01:18:43.095Z,9.38
2022-12-11T01:21:12.011Z,9.25
2022-12-11T01:23:39.329Z,9.30
2022-12-11T01:26:10.962Z,9.37
2022-12-11T01:28:37.643Z,9.41
2022-12-11T01:31:11.345Z,9.43
2022-12-11T01:33:39.710Z,9.45
2022-12-11T01:36:19.114Z,9.36
2022-12-11T01:38:47.345Z,9.40
2022-12-11T01:41:14.473Z,9.42
2022-12-11T01:43:57.146Z,9.42
2022-12-11T01:46:24.318Z,9.44
2022-12-11T01:48:51.137Z,9.47
2022-12-11T01:51:17.935Z,9.42
2022-12-11T01:53:52.029Z,9.36
2022-12-11T01:56:19.028Z,9.31
2022-12-11T01:58:59.854Z,9.30
2022-12-11T02:01:34.569Z,9.29
2022-12-11T02:04:02.157Z,9.30
2022-12-11T02:06:34.859Z,9.38
2022-12-11T02:09:02.450Z,9.60
2022-12-11T02:11:41.321Z,9.61
2022-12-11T02:14:56.776Z,9.64
2022-12-11T02:17:51.246Z,9.75
2022-12-11T02:20:24.094Z,9.90
2022-12-11T02:23:09.025Z,9.83
2022-12-11T02:26:01.081Z,9.86
2022-12-11T02:28:47.257Z,9.79
2022-12-11T02:31:32.063Z,9.76
2022-12-11T02:34:04.040Z,9.93
2022-12-11T02:36:36.370Z,10.01
2022-12-11T02:39:05.678Z,9.97
2022-12-11T02:41:34.199Z,10.07
2022-12-11T02:44:02.741Z,10.50
2022-12-11T02:46:31.006Z,10.72
2022-12-11T02:48:58.431Z,10.96
2022-12-11T02:51:31.287Z,10.90
2022-12-11T02:53:59.561Z,10.86
2022-12-11T02:57:08.790Z,10.58
2022-12-11T02:59:39.170Z,10.47
2022-12-11T03:02:06.643Z,10.49
2022-12-11T03:04:36.364Z,10.43
2022-12-11T03:07:25.202Z,10.38
2022-12-11T03:09:52.336Z,10.30
2022-12-11T03:12:25.936Z,10.29
2022-12-11T03:14:52.594Z,10.19
2022-12-11T03:17:22.863Z,10.11
2022-12-11T03:19:49.669Z,10.16
2022-12-11T03:22:26.911Z,10.36
2022-12-11T03:25:01.139Z,10.75
2022-12-11T03:27:38.492Z,11.21
2022-12-11T03:30:10.388Z,10.83
2022-12-11T03:32:45.012Z,10.60
2022-12-11T03:35:41.610Z,10.49
2022-12-11T03:38:13.893Z,10.38
2022-12-11T03:40:44.834Z,10.34
2022-12-11T03:43:11.816Z,10.33
2022-12-11T03:45:40.141Z,10.33
2022-12-11T03:48:09.115Z,10.33
2022-12-11T03:50:36.749Z,10.30
2022-12-11T03:53:05.162Z,10.25
2022-12-11T03:55:33.401Z,10.28
2022-12-11T03:58:00.264Z,10.24
2022-12-11T04:00:27.050Z,10.20
2022-12-11T04:03:13.872Z,10.22
2022-12-11T04:05:51.752Z,10.26
2022-12-11T04:08:21.047Z,10.26
2022-12-11T04:10:48.133Z,10.09
2022-12-11T04:13:14.737Z,10.00
2022-12-11T04:15:41.560Z,9.95
2022-12-11T04:18:27.379Z,10.18
2022-12-11T04:21:13.734Z,10.09
2022-12-11T04:23:58.630Z,10.05
2022-12-11T04:26:25.936Z,9.96
2022-12-11T04:28:52.608Z,9.92
2022-12-11T04:31:22.486Z,9.94
2022-12-11T04:33:49.237Z,9.89
2022-12-11T04:36:15.921Z,9.76
2022-12-11T04:38:42.495Z,9.73
2022-12-11T04:41:12.960Z,9.76
2022-12-11T04:43:40.060Z,9.72
2022-12-11T04:46:09.564Z,9.62
2022-12-11T04:48:37.536Z,9.53
2022-12-11T04:51:04.552Z,9.51
2022-12-11T04:53:31.774Z,9.54
2022-12-11T04:55:58.424Z,9.46
2022-12-11T04:58:27.466Z,9.48
2022-12-11T05:00:54.288Z,9.46
2022-12-11T05:03:24.474Z,9.52
2022-12-11T05:05:52.843Z,9.48
2022-12-11T05:08:22.731Z,9.38
2022-12-11T05:11:05.557Z,9.38
2022-12-11T05:13:32.729Z,9.36
2022-12-11T05:15:59.964Z,9.41
2022-12-11T05:18:26.660Z,9.46
2022-12-11T05:20:58.898Z,9.39
2022-12-11T05:23:26.144Z,9.40
2022-12-11T05:25:57.980Z,9.34
2022-12-11T05:28:26.189Z,9.32
2022-12-11T05:31:01.928Z,9.34
2022-12-11T05:33:28.816Z,9.29
2022-12-11T05:35:55.693Z,9.22
2022-12-11T05:38:23.144Z,9.30
2022-12-11T05:41:00.984Z,9.34
2022-12-11T05:43:29.205Z,9.29
2022-12-11T05:45:56.113Z,9.28
2022-12-11T05:48:23.124Z,9.27
2022-12-11T05:51:00.512Z,9.25
2022-12-11T05:53:28.189Z,9.25
2022-12-11T05:55:55.545Z,9.25
2022-12-11T05:58:22.173Z,9.30
2022-12-11T06:00:48.842Z,9.28
2022-12-11T06:03:15.523Z,9.25
2022-12-11T06:05:42.852Z,9.22
2022-12-11T06:08:09.758Z,9.31
2022-12-11T06:10:36.534Z,9.33
2022-12-11T06:13:03.781Z,9.31
2022-12-11T06:15:30.468Z,9.36
2022-12-11T06:17:57.071Z,9.34
2022-12-11T06:20:23.848Z,9.36
2022-12-11T06:22:50.550Z,9.38
2022-12-11T06:25:17.257Z,9.32
2022-12-11T06:27:43.899Z,9.29
2022-12-11T06:30:11.496Z,9.32
2022-12-11T06:32:38.364Z,9.48
2022-12-11T06:35:05.826Z,9.41
2022-12-11T06:37:32.453Z,9.46
2022-12-11T06:39:59.196Z,9.46
2022-12-11T06:42:26.052Z,9.50
2022-12-11T06:44:52.788Z,9.64
2022-12-11T06:47:19.468Z,9.61
2022-12-11T06:49:46.083Z,9.56
2022-12-11T06:52:18.170Z,9.42
2022-12-11T06:54:45.273Z,9.39
2022-12-11T06:57:12.265Z,9.32
2022-12-11T06:59:39.011Z,9.40
2022-12-11T07:02:05.657Z,9.45
2022-12-11T07:04:32.450Z,9.40
2022-12-11T07:07:01.504Z,9.43
2022-12-11T07:09:28.750Z,9.53
2022-12-11T07:11:55.472Z,9.41
2022-12-11T07:14:22.074Z,9.40
2022-12-11T07:16:48.747Z,9.42
2022-12-11T07:19:15.690Z,9.45
2022-12-11T07:21:42.342Z,9.31
2022-12-11T07:24:12.176Z,9.28
2022-12-11T07:26:38.827Z,9.23
2022-12-11T07:29:05.448Z,9.17
2022-12-11T07:31:38.174Z,9.15
2022-12-11T07:34:06.675Z,9.17
2022-12-11T07:36:34.342Z,9.21
2022-12-11T07:39:01.598Z,9.28
2022-12-11T07:41:28.894Z,9.35
2022-12-11T07:43:56.123Z,9.38
2022-12-11T07:46:26.479Z,9.44
2022-12-11T07:48:53.467Z,9.49
2022-12-11T07:51:27.587Z,9.63
2022-12-11T07:54:00.469Z,9.79
2022-12-11T07:56:28.719Z,9.84
2022-12-11T07:58:55.638Z,9.91
2022-12-11T08:01:24.491Z,9.98
2022-12-11T08:03:51.131Z,10.05
2022-12-11T08:06:21.451Z,10.16
2022-12-11T08:08:48.140Z,10.22
2022-12-11T08:11:15.493Z,10.25
2022-12-11T08:13:43.354Z,10.28
2022-12-11T08:16:13.613Z,10.31
2022-12-11T08:18:41.225Z,10.31
2022-12-11T08:21:16.073Z,10.30
2022-12-11T08:23:43.522Z,10.34
2022-12-11T08:26:13.537Z,10.29
2022-12-11T08:28:40.198Z,10.36
2022-12-11T08:31:08.895Z,10.35
2022-12-11T08:33:37.533Z,10.43
2022-12-11T08:36:08.607Z,10.42
2022-12-11T08:38:35.543Z,10.52
2022-12-11T08:41:13.510Z,10.56
2022-12-11T08:43:41.107Z,10.60
2022-12-11T08:46:08.241Z,10.70
2022-12-11T08:48:36.709Z,10.77
2022-12-11T08:51:06.251Z,10.88
2022-12-11T08:53:33.846Z,10.87
2022-12-11T08:56:02.129Z,10.80
2022-12-11T08:58:29.662Z,10.68
2022-12-11T09:00:57.212Z,10.55
2022-12-11T09:03:24.447Z,10.41
2022-12-11T09:05:55.715Z,10.31
2022-12-11T09:08:22.355Z,10.24
2022-12-11T09:10:49.066Z,10.10
2022-12-11T09:13:15.700Z,10.01
2022-12-11T09:15:42.401Z,9.92
2022-12-11T09:18:09.471Z,9.82
2022-12-11T09:20:36.074Z,9.70
2022-12-11T09:23:03.091Z,9.61
2022-12-11T09:25:30.026Z,9.37
2022-12-11T09:27:56.611Z,9.28
2022-12-11T09:30:23.299Z,9.21
2022-12-11T09:32:49.880Z,9.05
2022-12-11T09:35:16.712Z,8.93
2022-12-11T09:37:43.240Z,8.92
2022-12-11T09:40:12.373Z,8.83
2022-12-11T09:42:49.637Z,8.86
2022-12-11T09:45:16.829Z,8.83
2022-12-11T09:47:47.404Z,8.82
2022-12-11T09:50:33.947Z,8.85
2022-12-11T09:53:38.503Z,8.67
2022-12-11T09:56:30.159Z,8.64
2022-12-11T09:59:08.877Z,8.58
2022-12-11T10:02:11.078Z,8.54
2022-12-11T10:04:57.266Z,8.26
2022-12-11T10:07:35.720Z,8.30
2022-12-11T10:10:14.580Z,8.20
2022-12-11T10:13:08.396Z,8.14
2022-12-11T10:15:49.889Z,7.97
2022-12-11T10:18:23.112Z,8.06
2022-12-11T10:20:54.084Z,7.93
2022-12-11T10:23:27.638Z,8.03
2022-12-11T10:26:02.541Z,8.03
2022-12-11T10:28:29.223Z,8.06
2022-12-11T10:31:00.768Z,8.11
2022-12-11T10:33:37.890Z,8.16
2022-12-11T10:36:08.801Z,8.23
2022-12-11T10:38:42.557Z,8.25
2022-12-11T10:41:35.649Z,8.25
2022-12-11T10:44:15.515Z,8.24
2022-12-11T10:47:19.217Z,8.25
2022-12-11T10:49:58.532Z,8.35
2022-12-11T10:52:32.377Z,8.23
2022-12-11T10:55:03.800Z,8.23
2022-12-11T10:57:34.441Z,8.25
2022-12-11T11:00:02.127Z,8.33
2022-12-11T11:02:32.421Z,8.34
2022-12-11T11:05:01.649Z,8.30
2022-12-11T11:07:59.640Z,8.21
2022-12-11T11:10:29.810Z,8.17
2022-12-11T11:13:01.606Z,8.05
2022-12-11T11:15:31.530Z,8.16
2022-12-11T11:18:13.051Z,8.23
2022-12-11T11:20:47.479Z,8.05
2022-12-11T11:23:15.793Z,7.96
2022-12-11T11:26:01.667Z,7.83
2022-12-11T11:29:02.057Z,7.87
2022-12-11T11:31:34.786Z,7.91
2022-12-11T11:34:05.924Z,7.94
2022-12-11T11:36:34.829Z,8.03
2022-12-11T11:39:25.834Z,8.12
2022-12-11T11:42:00.880Z,8.07
2022-12-11T11:45:03.275Z,8.15
2022-12-11T11:47:50.806Z,8.21
2022-12-11T11:50:34.479Z,8.29
2022-12-11T11:53:05.951Z,8.27
2022-12-11T11:55:59.284Z,8.26
2022-12-11T11:58:37.191Z,8.26
2022-12-11T12:01:03.778Z,8.22
2022-12-11T12:03:30.662Z,8.23
2022-12-11T12:06:13.449Z,8.17
2022-12-11T12:08:48.891Z,8.16
2022-12-11T12:11:33.904Z,8.14
2022-12-11T12:14:29.205Z,8.20
2022-12-11T12:17:11.633Z,8.18
2022-12-11T12:20:08.620Z,8.22
2022-12-11T12:23:17.964Z,8.20
2022-12-11T12:25:49.178Z,8.20
2022-12-11T12:28:30.683Z,8.22
2022-12-11T12:31:13.295Z,8.16
2022-12-11T12:33:57.948Z,8.02
2022-12-11T12:36:39.654Z,8.07
2022-12-11T12:39:20.238Z,8.00
2022-12-11T12:42:01.356Z,8.01
2022-12-11T12:44:53.912Z,7.94
2022-12-11T12:47:22.009Z,7.83
2022-12-11T12:49:50.244Z,7.82
2022-12-11T12:52:31.411Z,7.82
2022-12-11T12:55:14.741Z,7.77
2022-12-11T12:58:00.571Z,7.67
2022-12-11T13:00:38.087Z,7.67
2022-12-11T13:03:17.579Z,7.69
2022-12-11T13:05:55.280Z,7.72
2022-12-11T13:08:27.754Z,7.70
2022-12-11T13:11:04.199Z,7.71
2022-12-11T13:13:44.454Z,7.68
2022-12-11T13:16:17.073Z,7.65
2022-12-11T13:18:47.531Z,7.59
2022-12-11T13:21:28.144Z,7.45
2022-12-11T13:23:55.639Z,7.41
2022-12-11T13:26:35.548Z,7.36
2022-12-11T13:29:02.167Z,7.33
2022-12-11T13:31:33.907Z,7.26
2022-12-11T13:34:14.343Z,7.30
2022-12-11T13:36:46.122Z,7.27
2022-12-11T13:39:25.581Z,7.25
2022-12-11T13:41:57.684Z,7.08
2022-12-11T13:44:39.523Z,7.09
2022-12-11T13:47:14.653Z,7.08
2022-12-11T13:49:44.243Z,7.04
2022-12-11T13:52:37.280Z,6.88
2022-12-11T13:55:21.839Z,6.92
2022-12-11T13:57:48.453Z,6.89
2022-12-11T14:00:27.163Z,6.88
2022-12-11T14:03:39.989Z,6.85
2022-12-11T14:06:18.589Z,6.80
2022-12-11T14:08:50.087Z,6.79
2022-12-11T14:11:28.094Z,6.78
2022-12-11T14:13:59.856Z,6.81
2022-12-11T14:16:27.869Z,6.76
2022-12-11T14:19:02.502Z,6.75
2022-12-11T14:21:29.201Z,6.68
2022-12-11T14:24:01.198Z,6.69
2022-12-11T14:26:39.529Z,6.67
2022-12-11T14:29:07.221Z,6.64
2022-12-11T14:31:36.280Z,6.66
2022-12-11T14:34:15.835Z,6.57
2022-12-11T14:36:44.064Z,6.53
2022-12-11T14:39:19.747Z,6.56
2022-12-11T14:41:52.731Z,6.45
2022-12-11T14:44:24.270Z,6.46
2022-12-11T14:46:56.224Z,6.44
2022-12-11T14:49:54.255Z,6.39
2022-12-11T14:52:33.658Z,6.38
2022-12-11T14:55:27.012Z,6.33
2022-12-11T14:57:59.159Z,6.37
2022-12-11T15:00:32.344Z,6.26
2022-12-11T15:03:01.659Z,6.28
2022-12-11T15:05:33.349Z,6.30
2022-12-11T15:08:27.586Z,6.20
2022-12-11T15:11:08.972Z,6.12
2022-12-11T15:13:39.069Z,6.15
2022-12-11T15:16:07.683Z,6.09
2022-12-11T15:18:39.553Z,6.10
2022-12-11T15:21:12.025Z,6.07
2022-12-11T15:23:52.733Z,6.01
2022-12-11T15:26:21.274Z,5.93
2022-12-11T15:28:47.898Z,6.02
2022-12-11T15:31:33.885Z,5.94
2022-12-11T15:34:01.268Z,5.85
2022-12-11T15:36:30.834Z,5.90
2022-12-11T15:38:58.139Z,5.87
2022-12-11T15:41:25.785Z,5.87
2022-12-11T15:43:58.505Z,5.81
2022-12-11T15:46:26.475Z,5.75
2022-12-11T15:48:53.264Z,5.70
2022-12-11T15:51:20.095Z,5.74
2022-12-11T15:53:46.741Z,5.74
2022-12-11T15:56:17.499Z,5.67
2022-12-11T15:58:48.296Z,5.74
2022-12-11T16:01:15.030Z,5.60
2022-12-11T16:03:50.581Z,5.73
2022-12-11T16:06:17.194Z,5.63
2022-12-11T16:08:43.853Z,5.65
2022-12-11T16:11:13.520Z,5.61
2022-12-11T16:13:40.206Z,5.59
2022-12-11T16:16:07.086Z,5.52
2022-12-11T16:18:33.814Z,5.50
2022-12-11T16:21:05.504Z,5.34
2022-12-11T16:23:32.533Z,5.31
2022-12-11T16:25:59.157Z,5.20
2022-12-11T16:28:25.798Z,4.71
2022-12-11T16:30:52.454Z,4.33
2022-12-11T16:33:20.248Z,4.26
2022-12-11T16:35:47.409Z,4.17
2022-12-11T16:38:14.136Z,4.12
2022-12-11T16:40:41.817Z,4.17
2022-12-11T16:43:08.651Z,4.26
2022-12-11T16:45:35.259Z,3.87
2022-12-11T16:48:05.229Z,3.76
2022-12-11T16:50:32.466Z,3.76
2022-12-11T16:52:59.234Z,3.52
2022-12-11T16:55:25.827Z,3.53
2022-12-11T16:57:52.356Z,3.58
2022-12-11T17:00:19.754Z,3.53
2022-12-11T17:02:46.560Z,3.40
2022-12-11T17:05:13.981Z,3.38
2022-12-11T17:07:40.722Z,3.49
2022-12-11T17:10:07.999Z,3.44
2022-12-11T17:12:34.628Z,3.45
2022-12-11T17:15:01.202Z,3.52
2022-12-11T17:17:27.814Z,3.53
2022-12-11T17:19:54.585Z,3.46
2022-12-11T17:22:22.772Z,3.53
2022-12-11T17:24:49.886Z,3.79
2022-12-11T17:27:16.791Z,3.74
2022-12-11T17:29:43.642Z,3.62
2022-12-11T17:32:10.620Z,3.57
2022-12-11T17:34:38.694Z,3.56
2022-12-11T17:37:07.644Z,3.66
2022-12-11T17:39:34.269Z,3.76
2022-12-11T17:42:00.989Z,3.71
2022-12-11T17:44:30.696Z,3.76
2022-12-11T17:46:59.014Z,3.67
2022-12-11T17:49:26.612Z,3.61
2022-12-11T17:51:55.584Z,3.51
2022-12-11T17:54:23.750Z,3.52
2022-12-11T17:56:51.091Z,3.54
2022-12-11T17:59:18.047Z,3.40
2022-12-11T18:01:45.081Z,3.26
2022-12-11T18:04:12.260Z,3.18
2022-12-11T18:06:41.508Z,3.22
2022-12-11T18:09:08.474Z,3.31
2022-12-11T18:11:35.146Z,3.39
2022-12-11T18:14:02.067Z,3.16
2022-12-11T18:16:32.424Z,3.24
2022-12-11T18:18:59.329Z,3.39
2022-12-11T18:21:30.779Z,3.38
2022-12-11T18:23:57.617Z,3.30
2022-12-11T18:26:25.266Z,3.27
2022-12-11T18:28:53.040Z,3.39
2022-12-11T18:31:21.002Z,3.30
2022-12-11T18:33:48.215Z,3.35
2022-12-11T18:36:17.375Z,3.35
2022-12-11T18:38:54.475Z,3.18
2022-12-11T18:41:21.281Z,3.14
2022-12-11T18:43:48.148Z,2.87
2022-12-11T18:46:20.741Z,2.78
2022-12-11T18:48:48.883Z,2.73
2022-12-11T18:51:20.425Z,2.90
2022-12-11T18:53:50.279Z,2.82
2022-12-11T18:56:18.977Z,2.73
2022-12-11T18:58:46.701Z,2.73
2022-12-11T19:01:26.123Z,2.70
2022-12-11T19:04:02.056Z,2.67
2022-12-11T19:06:32.093Z,2.85
2022-12-11T19:08:59.847Z,2.88
2022-12-11T19:11:28.468Z,2.76
2022-12-11T19:13:58.447Z,2.84
2022-12-11T19:16:34.180Z,2.88
2022-12-11T19:19:07.618Z,2.87
2022-12-11T19:21:36.763Z,2.80
2022-12-11T19:24:07.697Z,2.74
2022-12-11T19:26:35.021Z,2.72
2022-12-11T19:29:01.815Z,2.64
2022-12-11T19:31:30.306Z,2.47
2022-12-11T19:33:58.112Z,2.46
2022-12-11T19:36:27.532Z,2.39
2022-12-11T19:38:59.431Z,2.38
2022-12-11T19:41:28.915Z,2.35
2022-12-11T19:43:57.465Z,2.27
2022-12-11T19:46:26.614Z,2.22
2022-12-11T19:48:55.559Z,2.12
2022-12-11T19:51:25.726Z,2.08
2022-12-11T19:53:52.554Z,2.13
2022-12-11T19:56:19.766Z,2.01
2022-12-11T19:58:48.046Z,2.03
2022-12-11T20:01:28.926Z,1.90
2022-12-11T20:03:58.407Z,1.84
2022-12-11T20:06:35.198Z,1.85
2022-12-11T20:09:02.604Z,1.95
2022-12-11T20:11:29.532Z,1.94
2022-12-11T20:13:56.122Z,1.83
2022-12-11T20:16:53.784Z,1.66
2022-12-11T20:19:16.197Z,1.60
2022-12-11T20:21:42.995Z,1.55
2022-12-11T20:24:10.574Z,1.49
2022-12-11T20:26:38.207Z,1.51
2022-12-11T20:29:07.515Z,1.43
2022-12-11T20:31:35.603Z,1.53
2022-12-11T20:34:02.630Z,1.58
2022-12-11T20:36:29.303Z,1.64
2022-12-11T20:38:56.208Z,1.65
2022-12-11T20:41:24.518Z,1.67
2022-12-11T20:43:54.097Z,1.60
2022-12-11T20:46:25.173Z,1.52
2022-12-11T20:48:52.732Z,1.50
2022-12-11T20:51:25.766Z,1.48
2022-12-11T20:54:02.060Z,1.40
2022-12-11T20:56:30.488Z,1.41
2022-12-11T20:58:59.596Z,1.45
2022-12-11T21:01:28.426Z,1.45
2022-12-11T21:03:55.129Z,1.43
2022-12-11T21:06:25.935Z,1.39
2022-12-11T21:08:53.575Z,1.39
2022-12-11T21:11:20.459Z,1.35
2022-12-11T21:13:47.151Z,1.38
2022-12-11T21:16:13.835Z,1.35
2022-12-11T21:18:41.745Z,1.37
2022-12-11T21:21:08.381Z,1.39
2022-12-11T21:23:35.458Z,1.37
2022-12-11T21:26:03.321Z,1.37
2022-12-11T21:28:35.166Z,1.31
2022-12-11T21:31:07.476Z,1.30
2022-12-11T21:33:34.974Z,1.30
2022-12-11T21:36:02.582Z,1.27
2022-12-11T21:38:29.805Z,1.23
2022-12-11T21:40:56.779Z,1.23
2022-12-11T21:43:24.266Z,1.21
2022-12-11T21:46:07.046Z,1.26
2022-12-11T21:48:33.751Z,1.23
2022-12-11T21:51:11.457Z,1.21
2022-12-11T21:53:38.535Z,1.22
2022-12-11T21:56:10.088Z,1.23
2022-12-11T21:58:38.088Z,1.27
2022-12-11T22:01:06.942Z,1.26
2022-12-11T22:03:33.704Z,1.28
2022-12-11T22:06:00.300Z,1.17
2022-12-11T22:08:27.000Z,1.22
2022-12-11T22:10:53.937Z,1.24
2022-12-11T22:13:20.629Z,1.26
2022-12-11T22:15:47.300Z,1.27
2022-12-11T22:18:13.869Z,1.30
2022-12-11T22:20:40.612Z,1.34
2022-12-11T22:23:07.267Z,1.31
2022-12-11T22:25:36.502Z,1.37
2022-12-11T22:28:03.406Z,1.34
2022-12-11T22:30:30.430Z,1.33
2022-12-11T22:32:57.084Z,1.30
2022-12-11T22:35:27.133Z,1.34
2022-12-11T22:37:54.540Z,1.36
2022-12-11T22:40:22.536Z,1.35
2022-12-11T22:42:49.237Z,1.30
2022-12-11T22:45:15.926Z,1.32
2022-12-11T22:47:42.561Z,1.37
2022-12-11T22:50:10.673Z,1.38
2022-12-11T22:52:37.501Z,1.37
2022-12-11T22:55:04.417Z,1.35
2022-12-11T22:57:31.346Z,1.35
2022-12-11T22:59:58.005Z,1.41
2022-12-11T23:02:24.771Z,1.41
2022-12-11T23:04:51.519Z,1.40
2022-12-11T23:07:18.260Z,1.43
2022-12-11T23:09:44.808Z,1.42
2022-12-11T23:12:11.485Z,1.34
2022-12-11T23:14:38.206Z,1.34
2022-12-11T23:17:04.844Z,1.41
2022-12-11T23:19:31.727Z,1.42
2022-12-11T23:21:58.355Z,1.36
2022-12-11T23:24:24.888Z,1.36
2022-12-11T23:26:51.555Z,1.35
2022-12-11T23:29:18.220Z,1.38
2022-12-11T23:31:44.978Z,1.39
2022-12-11T23:34:12.835Z,1.35
2022-12-11T23:36:39.387Z,1.34
2022-12-11T23:39:06.141Z,1.38
2022-12-11T23:41:32.788Z,1.28
2022-12-11T23:43:59.445Z,1.36
2022-12-11T23:46:29.301Z,1.32
2022-12-11T23:48:58.738Z,1.33
2022-12-11T23:51:25.935Z,1.32
2022-12-11T23:53:53.552Z,1.32
2022-12-11T23:56:24.470Z,1.31
2022-12-11T23:58:52.192Z,1.33
